Accueil
METAR-TAF:

METAR-TAF

Aéroports :

Damas, Syrie

Aéroport international de Damas

latitude: 33-25N, longitude: 036-31E, altitude: 608 m

Observation

Le bulletin a été fait il y a 29 minutes, à 03:00 UTC
Vent calme
Température 4°C
Humidité 81%
Pression 1017 hPa
Visibilité 10 km ou plus
pas de nuages en-dessous de 1500 mètres et pas de cumulonimbus.

METAR: OSDI 260300Z 00000KT CAVOK 04/01 Q1017

Heure: 05:29 (03:29 UTC)

Prévision

Le bulletin a été fait il y a 5 heures et 59 minutes, à 21:30 UTC
Prévision valable du 26 à 00 UTC au 27 à 06 UTC
Vent 3 kt de direction variable
Visibilité 10 km ou plus
pas de nuages en-dessous de 1500 mètres et pas de cumulonimbus.
Temporairement
du 26 à 09 UTC au 26 à 18 UTC
Vent 10 kt de sud-ouest
Visibilité 10 km ou plus
Quelques nuages à une hauteur de 3000 ft

TAF: OSDI 252130Z 2600/2706 VRB03KT CAVOK TEMPO 2609/2618 22010KT 9999 FEW030

Observations et prévisions météorologiques de plus de 4000 aéroports (messages METAR et TAF).

Les stations disponibles sont représentées par des disques jaunes et rouges sur la carte.

Passer la souris dessus pour voir le nom de la station.

Cliquer dessus pour voir les observations et prévisions météorologiques.

Pour changer de carte: cliquez sur les boutons verts avec une croix noire pour zoomer, sur le bouton vert avec un tiret pour effectuer un zoom arrière, ou sur les flèches vertes pour les cartes adjacentes.


METAR-TAF: